createdAt,value
2018-09-01T00:00:32.784Z,73.70
2018-09-01T00:03:01.360Z,73.70
2018-09-01T00:05:29.027Z,73.60
2018-09-01T00:07:57.695Z,73.80
2018-09-01T00:10:26.297Z,73.70
2018-09-01T00:12:56.144Z,73.70
2018-09-01T00:15:25.248Z,73.70
2018-09-01T00:17:52.922Z,73.70
2018-09-01T00:20:20.592Z,73.70
2018-09-01T00:22:48.300Z,73.80
2018-09-01T00:25:16.971Z,73.80
2018-09-01T00:27:45.369Z,73.90
2018-09-01T00:30:15.544Z,73.80
2018-09-01T00:32:44.888Z,73.90
2018-09-01T00:35:14.432Z,73.80
2018-09-01T00:37:47.668Z,73.60
2018-09-01T00:40:15.501Z,73.70
2018-09-01T00:42:44.080Z,73.70
2018-09-01T00:45:12.767Z,73.70
2018-09-01T00:47:40.566Z,73.80
2018-09-01T00:50:08.252Z,73.60
2018-09-01T00:52:36.964Z,73.30
2018-09-01T00:55:09.395Z,73.60
2018-09-01T00:57:38.095Z,73.70
2018-09-01T01:00:05.796Z,73.60
2018-09-01T01:02:33.457Z,73.70
2018-09-01T01:05:02.159Z,73.70
2018-09-01T01:07:30.855Z,73.60
2018-09-01T01:09:58.534Z,73.50
2018-09-01T01:12:27.245Z,73.60
2018-09-01T01:14:57.484Z,73.50
2018-09-01T01:17:26.203Z,73.50
2018-09-01T01:19:54.419Z,73.60
2018-09-01T01:22:22.804Z,73.70
2018-09-01T01:24:51.757Z,73.50
2018-09-01T01:27:20.462Z,73.70
2018-09-01T01:29:49.224Z,73.50
2018-09-01T01:32:16.896Z,73.40
2018-09-01T01:34:45.628Z,73.50
2018-09-01T01:37:15.799Z,73.50
2018-09-01T01:39:45.401Z,73.50
2018-09-01T01:42:14.541Z,73.40
2018-09-01T01:44:42.221Z,73.50
2018-09-01T01:47:10.788Z,73.60
2018-09-01T01:49:39.545Z,73.50
2018-09-01T01:52:08.077Z,73.60
2018-09-01T01:54:35.752Z,73.30
2018-09-01T01:57:04.369Z,73.40
2018-09-01T01:59:33.129Z,73.30
2018-09-01T02:02:01.884Z,73.60
2018-09-01T02:04:29.552Z,73.50
2018-09-01T02:06:58.220Z,73.50
2018-09-01T02:09:26.780Z,73.50
2018-09-01T02:11:56.428Z,73.30
2018-09-01T02:14:24.708Z,73.40
2018-09-01T02:16:53.263Z,73.40
2018-09-01T02:19:21.891Z,73.60
2018-09-01T02:21:49.584Z,73.50
2018-09-01T02:24:17.256Z,73.60
2018-09-01T02:26:45.987Z,73.50
2018-09-01T02:29:14.083Z,73.60
2018-09-01T02:31:42.828Z,73.60
2018-09-01T02:34:10.504Z,73.50
2018-09-01T02:36:38.208Z,73.70
2018-09-01T02:39:06.880Z,73.60
2018-09-01T02:41:35.232Z,73.50
2018-09-01T02:44:02.900Z,73.40
2018-09-01T02:46:31.470Z,73.10
2018-09-01T02:49:00.176Z,73.40
2018-09-01T02:51:28.877Z,73.10
2018-09-01T02:53:56.559Z,73.40
2018-09-01T02:56:25.479Z,73.50
2018-09-01T02:58:53.154Z,73.40
2018-09-01T03:01:26.332Z,73.20
2018-09-01T03:03:54.757Z,73.30
2018-09-01T03:06:22.460Z,73.40
2018-09-01T03:08:51.189Z,73.10
2018-09-01T03:11:19.898Z,73.10
2018-09-01T03:13:47.607Z,73.20
2018-09-01T03:16:15.344Z,73.00
2018-09-01T03:18:44.108Z,73.10
2018-09-01T03:21:14.015Z,73.30
2018-09-01T03:23:41.810Z,73.10
2018-09-01T03:26:10.501Z,73.10
2018-09-01T03:28:38.213Z,73.20
2018-09-01T03:31:05.868Z,73.40
2018-09-01T03:33:34.472Z,73.50
2018-09-01T03:36:03.134Z,73.30
2018-09-01T03:38:31.925Z,73.20
2018-09-01T03:41:00.663Z,73.20
2018-09-01T03:43:29.473Z,73.10
2018-09-01T03:45:57.160Z,73.20
2018-09-01T03:48:26.672Z,73.10
2018-09-01T03:50:55.300Z,73.00
2018-09-01T03:53:24.704Z,73.00
2018-09-01T03:55:52.380Z,72.90
2018-09-01T03:58:20.936Z,72.90
2018-09-01T04:00:50.236Z,73.00
2018-09-01T04:03:17.904Z,73.00
2018-09-01T04:05:45.565Z,73.00
2018-09-01T04:08:14.291Z,73.10
2018-09-01T04:10:42.995Z,73.10
2018-09-01T04:13:11.687Z,73.10
2018-09-01T04:15:39.689Z,73.00
2018-09-01T04:18:08.371Z,72.90
2018-09-01T04:20:36.052Z,73.00
2018-09-01T04:23:03.809Z,72.80
2018-09-01T04:25:31.548Z,73.50
2018-09-01T04:27:59.334Z,72.80
2018-09-01T04:30:28.064Z,72.70
2018-09-01T04:32:57.576Z,72.70
2018-09-01T04:35:26.256Z,72.90
2018-09-01T04:37:54.629Z,73.50
2018-09-01T04:40:23.343Z,73.40
2018-09-01T04:42:51.207Z,72.60
2018-09-01T04:45:20.240Z,72.90
2018-09-01T04:47:48.108Z,72.80
2018-09-01T04:50:15.944Z,72.70
2018-09-01T04:52:44.567Z,72.90
2018-09-01T04:55:12.245Z,72.70
2018-09-01T04:57:39.912Z,72.70
2018-09-01T05:00:07.596Z,73.50
2018-09-01T05:02:35.285Z,72.70
2018-09-01T05:05:02.960Z,72.70
2018-09-01T05:07:30.621Z,72.40
2018-09-01T05:09:58.420Z,72.70
2018-09-01T05:12:26.844Z,72.70
2018-09-01T05:14:54.552Z,72.60
2018-09-01T05:17:22.216Z,72.70
2018-09-01T05:19:51.209Z,72.70
2018-09-01T05:22:19.740Z,72.70
2018-09-01T05:24:47.413Z,72.30
2018-09-01T05:27:15.092Z,72.50
2018-09-01T05:29:42.788Z,72.70
2018-09-01T05:32:10.456Z,72.50
2018-09-01T05:34:38.435Z,72.50
2018-09-01T05:37:06.104Z,72.60
2018-09-01T05:39:34.112Z,72.70
2018-09-01T05:42:02.815Z,72.70
2018-09-01T05:44:30.568Z,72.50
2018-09-01T05:46:58.244Z,72.30
2018-09-01T05:49:26.909Z,73.50
2018-09-01T05:51:56.556Z,72.30
2018-09-01T05:54:24.831Z,72.30
2018-09-01T05:56:52.551Z,72.30
2018-09-01T05:59:21.280Z,72.50
2018-09-01T06:01:51.328Z,72.10
2018-09-01T06:04:19.864Z,72.20
2018-09-01T06:06:47.572Z,71.90
2018-09-01T06:09:15.262Z,72.30
2018-09-01T06:11:42.973Z,72.00
2018-09-01T06:14:11.720Z,72.90
2018-09-01T06:16:39.396Z,72.10
2018-09-01T06:19:07.991Z,72.30
2018-09-01T06:21:35.661Z,72.30
2018-09-01T06:24:03.523Z,72.20
2018-09-01T06:26:32.020Z,71.90
2018-09-01T06:29:08.248Z,71.90
2018-09-01T06:31:35.946Z,72.10
2018-09-01T06:34:04.620Z,72.00
2018-09-01T06:36:33.439Z,73.00
2018-09-01T06:39:01.411Z,72.20
2018-09-01T06:41:30.095Z,72.30
2018-09-01T06:43:57.792Z,72.40
2018-09-01T06:46:26.079Z,72.30
2018-09-01T06:48:53.756Z,72.30
2018-09-01T06:51:21.624Z,72.60
2018-09-01T06:53:49.425Z,72.50
2018-09-01T06:56:18.553Z,72.60
2018-09-01T06:58:47.276Z,72.60
2018-09-01T07:01:16.234Z,73.30
2018-09-01T07:03:44.913Z,72.80
2018-09-01T07:06:12.620Z,72.60
2018-09-01T07:08:41.486Z,72.70
2018-09-01T07:11:09.157Z,72.70
2018-09-01T07:13:36.829Z,72.70
2018-09-01T07:16:04.748Z,73.00
2018-09-01T07:18:32.444Z,73.30
2018-09-01T07:21:01.309Z,72.20
2018-09-01T07:23:31.481Z,72.60
2018-09-01T07:26:00.096Z,72.60
2018-09-01T07:28:27.772Z,72.10
2018-09-01T07:30:55.805Z,72.00
2018-09-01T07:33:23.169Z,72.30
2018-09-01T07:35:51.332Z,72.10
2018-09-01T07:38:19.504Z,71.90
2018-09-01T07:40:47.174Z,71.80
2018-09-01T07:43:14.852Z,71.50
2018-09-01T07:45:42.560Z,71.70
2018-09-01T07:48:10.224Z,71.50
2018-09-01T07:50:37.896Z,71.70
2018-09-01T07:53:05.968Z,72.00
2018-09-01T07:55:33.640Z,71.70
2018-09-01T07:58:01.316Z,72.30
2018-09-01T08:00:29.129Z,71.80
2018-09-01T08:02:57.219Z,71.40
2018-09-01T08:05:25.641Z,71.70
2018-09-01T08:07:53.388Z,72.00
2018-09-01T08:10:21.059Z,72.30
2018-09-01T08:12:49.508Z,72.20
2018-09-01T08:15:18.936Z,72.30
2018-09-01T08:17:47.656Z,71.90
2018-09-01T08:20:16.325Z,72.20
2018-09-01T08:22:43.995Z,72.20
2018-09-01T08:25:11.697Z,72.00
2018-09-01T08:27:40.420Z,71.70
2018-09-01T08:30:10.214Z,72.20
2018-09-01T08:32:39.173Z,72.60
2018-09-01T08:35:07.732Z,72.40
2018-09-01T08:37:36.448Z,72.30
2018-09-01T08:40:04.354Z,72.90
2018-09-01T08:42:33.016Z,72.70
2018-09-01T08:45:00.741Z,73.00
2018-09-01T08:47:29.428Z,72.20
2018-09-01T08:49:57.100Z,73.10
2018-09-01T08:52:26.360Z,73.10
2018-09-01T08:54:55.589Z,73.50
2018-09-01T08:57:23.287Z,72.40
2018-09-01T08:59:51.974Z,73.10
2018-09-01T09:02:20.687Z,72.90
2018-09-01T09:04:50.284Z,73.30
2018-09-01T09:07:18.012Z,73.00
2018-09-01T09:09:46.618Z,72.80
2018-09-01T09:12:14.344Z,73.10
2018-09-01T09:14:42.907Z,73.10
2018-09-01T09:17:10.592Z,72.70
2018-09-01T09:19:39.450Z,72.50
2018-09-01T09:22:07.116Z,72.50
2018-09-01T09:24:35.700Z,72.70
2018-09-01T09:27:03.384Z,72.90
2018-09-01T09:29:31.980Z,73.10
2018-09-01T09:31:59.663Z,73.10
2018-09-01T09:34:27.659Z,73.30
2018-09-01T09:36:57.739Z,73.40
2018-09-01T09:39:26.499Z,73.50
2018-09-01T09:42:00.435Z,73.30
2018-09-01T09:44:30.699Z,73.40
2018-09-01T09:46:58.404Z,73.40
2018-09-01T09:49:26.159Z,72.90
2018-09-01T09:51:53.836Z,73.70
2018-09-01T09:54:22.444Z,73.60
2018-09-01T09:56:51.224Z,73.50
2018-09-01T09:59:20.992Z,72.70
2018-09-01T10:01:50.851Z,73.10
2018-09-01T10:04:18.533Z,73.40
2018-09-01T10:06:47.225Z,73.40
2018-09-01T10:09:15.875Z,73.10
2018-09-01T10:11:44.570Z,73.90
2018-09-01T10:14:12.660Z,73.80
2018-09-01T10:16:42.145Z,73.80
2018-09-01T10:19:10.053Z,73.90
2018-09-01T10:21:38.891Z,74.30
2018-09-01T10:24:06.896Z,73.90
2018-09-01T10:26:35.541Z,73.30
2018-09-01T10:29:03.212Z,73.50
2018-09-01T10:31:31.929Z,74.70
2018-09-01T10:33:59.600Z,73.90
2018-09-01T10:36:27.337Z,73.60
2018-09-01T10:38:55.739Z,73.50
2018-09-01T10:41:24.379Z,72.70
2018-09-01T10:43:52.085Z,72.00
2018-09-01T10:46:20.784Z,71.50
2018-09-01T10:48:49.284Z,71.60
2018-09-01T10:51:17.932Z,71.60
2018-09-01T10:53:46.515Z,70.90
2018-09-01T10:56:15.080Z,70.40
2018-09-01T10:58:42.780Z,71.10
2018-09-01T11:01:11.504Z,71.10
2018-09-01T11:03:39.472Z,70.50
2018-09-01T11:06:07.132Z,70.20
2018-09-01T11:08:35.724Z,70.30
2018-09-01T11:11:04.120Z,70.00
2018-09-01T11:13:31.816Z,69.90
2018-09-01T11:15:59.516Z,70.00
2018-09-01T11:18:27.189Z,70.00
2018-09-01T11:20:56.869Z,69.80
2018-09-01T11:23:25.672Z,70.30
2018-09-01T11:25:53.375Z,70.60
2018-09-01T11:28:21.157Z,70.40
2018-09-01T11:30:51.276Z,70.00
2018-09-01T11:33:19.507Z,70.60
2018-09-01T11:35:50.111Z,70.80
2018-09-01T11:38:17.843Z,70.90
2018-09-01T11:40:46.464Z,71.10
2018-09-01T11:43:15.082Z,71.00
2018-09-01T11:45:43.736Z,70.50
2018-09-01T11:48:12.447Z,70.50
2018-09-01T11:50:40.151Z,70.50
2018-09-01T11:53:09.138Z,70.80
2018-09-01T11:55:37.711Z,70.90
2018-09-01T11:58:05.456Z,70.80
2018-09-01T12:00:33.200Z,70.60
2018-09-01T12:03:00.937Z,70.40
2018-09-01T12:05:28.986Z,70.60
2018-09-01T12:07:57.660Z,70.90
2018-09-01T12:10:27.805Z,71.00
2018-09-01T12:12:56.082Z,71.10
2018-09-01T12:15:23.777Z,71.20
2018-09-01T12:17:51.485Z,71.40
2018-09-01T12:20:20.105Z,71.50
2018-09-01T12:22:47.784Z,71.60
2018-09-01T12:25:15.460Z,71.50
2018-09-01T12:27:43.128Z,71.30
2018-09-01T12:30:10.860Z,71.20
2018-09-01T12:32:38.860Z,71.50
2018-09-01T12:35:06.555Z,71.70
2018-09-01T12:37:34.467Z,71.80
2018-09-01T12:40:02.158Z,71.90
2018-09-01T12:42:30.844Z,72.00
2018-09-01T12:44:59.524Z,71.90
2018-09-01T12:47:27.216Z,71.90
2018-09-01T12:49:55.640Z,72.10
2018-09-01T12:52:23.311Z,72.20
2018-09-01T12:54:52.668Z,72.30
2018-09-01T12:57:21.579Z,72.00
2018-09-01T12:59:49.371Z,72.20
2018-09-01T13:02:24.476Z,72.30
2018-09-01T13:04:53.583Z,72.40
2018-09-01T13:07:22.131Z,72.30
2018-09-01T13:09:50.760Z,72.50
2018-09-01T13:12:19.152Z,72.60
2018-09-01T13:14:46.831Z,72.20
2018-09-01T13:17:14.559Z,72.30
2018-09-01T13:19:43.780Z,72.30
2018-09-01T13:22:11.428Z,71.60
2018-09-01T13:24:39.290Z,71.20
2018-09-01T13:27:07.963Z,71.90
2018-09-01T13:29:36.641Z,71.80
2018-09-01T13:32:04.328Z,72.20
2018-09-01T13:34:33.104Z,72.40
2018-09-01T13:37:01.715Z,72.30
2018-09-01T13:39:30.446Z,72.30
2018-09-01T13:41:59.137Z,72.60
2018-09-01T13:44:26.884Z,72.50
2018-09-01T13:46:56.504Z,72.50
2018-09-01T13:49:25.818Z,72.80
2018-09-01T13:51:55.144Z,72.30
2018-09-01T13:54:25.896Z,72.30
2018-09-01T13:56:53.569Z,72.00
2018-09-01T13:59:22.121Z,72.20
2018-09-01T14:01:50.704Z,71.70
2018-09-01T14:04:19.447Z,72.20
2018-09-01T14:06:48.167Z,71.20
2018-09-01T14:09:16.972Z,72.00
2018-09-01T14:11:44.668Z,72.20
2018-09-01T14:14:13.690Z,71.60
2018-09-01T14:16:42.251Z,71.50
2018-09-01T14:19:09.924Z,71.50
2018-09-01T14:21:37.592Z,70.70
2018-09-01T14:24:06.194Z,71.90
2018-09-01T14:26:37.689Z,69.60
2018-09-01T14:29:07.006Z,69.70
2018-09-01T14:31:35.764Z,70.30
2018-09-01T14:34:03.467Z,69.50
2018-09-01T14:36:31.200Z,67.80
2018-09-01T14:38:58.847Z,68.80
2018-09-01T14:41:28.576Z,69.80
2018-09-01T14:43:57.272Z,69.10
2018-09-01T14:46:26.045Z,69.50
2018-09-01T14:48:53.708Z,70.70
2018-09-01T14:51:21.412Z,69.50
2018-09-01T14:53:51.467Z,69.90
2018-09-01T14:56:20.381Z,67.50
2018-09-01T14:58:50.439Z,69.90
2018-09-01T15:01:20.284Z,70.10
2018-09-01T15:03:50.036Z,68.20
2018-09-01T15:06:19.758Z,70.40
2018-09-01T15:08:49.201Z,70.70
2018-09-01T15:11:16.943Z,70.60
2018-09-01T15:13:44.607Z,70.00
2018-09-01T15:16:12.268Z,70.80
2018-09-01T15:18:41.068Z,70.20
2018-09-01T15:21:08.754Z,70.70
2018-09-01T15:23:37.569Z,70.80
2018-09-01T15:26:05.236Z,71.10
2018-09-01T15:28:32.953Z,71.10
2018-09-01T15:31:00.604Z,71.40
2018-09-01T15:33:28.309Z,71.70
2018-09-01T15:35:56.972Z,71.50
2018-09-01T15:38:25.464Z,71.70
2018-09-01T15:40:53.316Z,71.50
2018-09-01T15:43:21.556Z,71.60
2018-09-01T15:45:50.752Z,71.70
2018-09-01T15:48:19.935Z,71.90
2018-09-01T15:50:47.916Z,72.10
2018-09-01T15:53:15.725Z,73.00
2018-09-01T15:55:43.396Z,72.30
2018-09-01T15:58:11.064Z,72.20
2018-09-01T16:00:38.779Z,72.20
2018-09-01T16:03:06.452Z,72.00
2018-09-01T16:05:35.168Z,71.90
2018-09-01T16:08:02.851Z,71.70
2018-09-01T16:10:31.583Z,71.80
2018-09-01T16:12:59.260Z,71.50
2018-09-01T16:15:27.835Z,71.60
2018-09-01T16:17:57.967Z,71.80
2018-09-01T16:20:28.036Z,71.80
2018-09-01T16:22:56.780Z,72.00
2018-09-01T16:25:26.383Z,71.90
2018-09-01T16:27:54.995Z,72.10
2018-09-01T16:30:23.612Z,72.00
2018-09-01T16:32:52.304Z,71.80
2018-09-01T16:35:21.029Z,72.00
2018-09-01T16:37:51.200Z,72.00
2018-09-01T16:40:20.392Z,72.10
2018-09-01T16:42:50.536Z,71.90
2018-09-01T16:45:20.351Z,72.00
2018-09-01T16:47:49.446Z,71.90
2018-09-01T16:50:17.116Z,72.10
2018-09-01T16:52:44.776Z,72.00
2018-09-01T16:55:12.463Z,72.20
2018-09-01T16:57:40.129Z,72.20
2018-09-01T17:00:07.813Z,72.20
2018-09-01T17:02:36.367Z,72.30
2018-09-01T17:05:04.056Z,72.50
2018-09-01T17:07:34.021Z,72.20
2018-09-01T17:10:01.705Z,72.50
2018-09-01T17:12:29.363Z,72.50
2018-09-01T17:14:57.028Z,72.70
2018-09-01T17:17:25.386Z,72.90
2018-09-01T17:19:53.056Z,72.90
2018-09-01T17:22:20.727Z,73.10
2018-09-01T17:24:49.183Z,73.10
2018-09-01T17:27:16.852Z,73.10
2018-09-01T17:29:44.562Z,73.30
2018-09-01T17:32:12.232Z,73.30
2018-09-01T17:34:39.913Z,73.30
2018-09-01T17:37:07.593Z,73.30
2018-09-01T17:39:35.316Z,73.40
2018-09-01T17:42:04.012Z,73.50
2018-09-01T17:44:31.685Z,73.40
2018-09-01T17:46:59.364Z,73.50
2018-09-01T17:49:27.063Z,73.60
2018-09-01T17:51:56.787Z,73.60
2018-09-01T17:54:25.101Z,73.50
2018-09-01T17:56:52.761Z,73.10
2018-09-01T17:59:22.209Z,73.70
2018-09-01T18:01:50.875Z,73.60
2018-09-01T18:04:20.473Z,73.70
2018-09-01T18:06:50.542Z,73.80
2018-09-01T18:09:20.422Z,73.70
2018-09-01T18:11:48.876Z,73.90
2018-09-01T18:14:17.644Z,73.60
2018-09-01T18:16:45.487Z,73.70
2018-09-01T18:19:13.155Z,73.40
2018-09-01T18:21:41.684Z,73.30
2018-09-01T18:24:09.344Z,72.90
2018-09-01T18:26:38.932Z,72.10
2018-09-01T18:29:07.704Z,71.60
2018-09-01T18:31:36.389Z,71.00
2018-09-01T18:34:04.068Z,70.40
2018-09-01T18:36:31.999Z,70.20
2018-09-01T18:38:59.680Z,70.00
2018-09-01T18:41:28.675Z,69.50
2018-09-01T18:43:57.057Z,69.20
2018-09-01T18:46:28.660Z,69.40
2018-09-01T18:48:57.477Z,69.40
2018-09-01T18:51:26.252Z,69.30
2018-09-01T18:53:54.180Z,69.30
2018-09-01T18:56:22.208Z,69.90
2018-09-01T18:58:50.825Z,69.10
2018-09-01T19:01:19.318Z,69.40
2018-09-01T19:03:47.993Z,69.30
2018-09-01T19:06:15.661Z,69.30
2018-09-01T19:08:43.348Z,69.30
2018-09-01T19:11:11.045Z,69.30
2018-09-01T19:13:39.024Z,70.20
2018-09-01T19:16:07.136Z,69.50
2018-09-01T19:18:34.949Z,69.50
2018-09-01T19:21:02.684Z,69.60
2018-09-01T19:23:30.340Z,69.60
2018-09-01T19:26:01.624Z,69.70
2018-09-01T19:28:29.603Z,69.60
2018-09-01T19:30:57.368Z,69.80
2018-09-01T19:33:25.098Z,69.80
2018-09-01T19:35:52.784Z,69.90
2018-09-01T19:38:21.993Z,70.00
2018-09-01T19:40:50.460Z,70.00
2018-09-01T19:43:18.164Z,70.40
2018-09-01T19:45:45.977Z,70.60
2018-09-01T19:48:13.730Z,70.60
2018-09-01T19:50:41.408Z,70.60
2018-09-01T19:53:09.076Z,70.90
2018-09-01T19:55:36.898Z,70.60
2018-09-01T19:58:05.541Z,70.80
2018-09-01T20:00:33.227Z,70.80
2018-09-01T20:03:01.977Z,71.50
2018-09-01T20:05:30.760Z,71.10
2018-09-01T20:07:58.430Z,71.50
2018-09-01T20:10:27.121Z,71.80
2018-09-01T20:12:56.516Z,71.60
2018-09-01T20:15:26.056Z,71.60
2018-09-01T20:17:55.400Z,71.70
2018-09-01T20:20:23.071Z,71.70
2018-09-01T20:22:50.732Z,72.20
2018-09-01T20:25:18.555Z,71.50
2018-09-01T20:27:46.190Z,71.60
2018-09-01T20:30:13.864Z,71.90
2018-09-01T20:32:41.529Z,71.90
2018-09-01T20:35:14.696Z,72.00
2018-09-01T20:37:42.369Z,71.90
2018-09-01T20:40:10.038Z,72.10
2018-09-01T20:42:37.928Z,72.10
2018-09-01T20:45:05.654Z,72.00
2018-09-01T20:47:34.327Z,71.90
2018-09-01T20:50:02.047Z,72.30
2018-09-01T20:52:29.930Z,72.30
2018-09-01T20:54:59.740Z,72.30
2018-09-01T20:57:27.433Z,72.40
2018-09-01T20:59:55.147Z,72.70
2018-09-01T21:02:22.853Z,72.60
2018-09-01T21:04:51.881Z,72.30
2018-09-01T21:07:20.559Z,72.60
2018-09-01T21:09:49.002Z,72.90
2018-09-01T21:12:16.675Z,72.80
2018-09-01T21:14:44.501Z,72.80
2018-09-01T21:17:12.299Z,73.00
2018-09-01T21:19:39.956Z,72.70
2018-09-01T21:22:07.623Z,73.00
2018-09-01T21:24:36.344Z,72.70
2018-09-01T21:27:04.098Z,72.70
2018-09-01T21:29:31.780Z,72.80
2018-09-01T21:31:59.464Z,72.60
2018-09-01T21:34:27.507Z,72.70
2018-09-01T21:36:55.311Z,72.70
2018-09-01T21:39:24.027Z,72.90
2018-09-01T21:41:51.724Z,73.60
2018-09-01T21:44:19.432Z,73.10
2018-09-01T21:46:47.109Z,72.90
2018-09-01T21:49:14.784Z,73.00
2018-09-01T21:51:42.456Z,73.20
2018-09-01T21:54:10.163Z,73.20
2018-09-01T21:56:37.928Z,73.30
2018-09-01T21:59:05.599Z,73.10
2018-09-01T22:01:34.699Z,73.10
2018-09-01T22:04:02.413Z,73.40
2018-09-01T22:06:31.276Z,73.20
2018-09-01T22:08:58.975Z,73.20
2018-09-01T22:11:27.384Z,73.10
2018-09-01T22:13:56.821Z,73.10
2018-09-01T22:16:25.212Z,73.20
2018-09-01T22:18:52.948Z,73.50
2018-09-01T22:21:20.725Z,73.30
2018-09-01T22:23:49.296Z,73.30
2018-09-01T22:26:17.003Z,73.30
2018-09-01T22:28:44.712Z,73.30
2018-09-01T22:31:12.456Z,73.30
2018-09-01T22:33:41.011Z,73.40
2018-09-01T22:36:09.743Z,73.30
2018-09-01T22:38:38.423Z,73.30
2018-09-01T22:41:06.131Z,73.30
2018-09-01T22:43:34.801Z,73.40
2018-09-01T22:46:02.531Z,73.30
2018-09-01T22:48:31.116Z,73.30
2018-09-01T22:50:58.844Z,72.90
2018-09-01T22:53:26.712Z,73.20
2018-09-01T22:55:56.048Z,73.20
2018-09-01T22:58:25.281Z,73.20
2018-09-01T23:00:53.895Z,73.20
2018-09-01T23:03:21.577Z,73.40
2018-09-01T23:05:51.427Z,73.70
2018-09-01T23:08:20.052Z,73.50
2018-09-01T23:10:50.136Z,73.70
2018-09-01T23:13:17.847Z,73.30
2018-09-01T23:15:46.432Z,73.40
2018-09-01T23:18:14.207Z,73.40
2018-09-01T23:20:41.960Z,73.60
2018-09-01T23:23:09.622Z,73.40
2018-09-01T23:25:37.323Z,73.50
2018-09-01T23:28:05.019Z,73.50
2018-09-01T23:30:32.895Z,73.50
2018-09-01T23:33:00.572Z,73.70
2018-09-01T23:35:28.300Z,74.00
2018-09-01T23:37:57.112Z,73.60
2018-09-01T23:40:25.689Z,73.60
2018-09-01T23:42:53.452Z,73.70
2018-09-01T23:45:22.080Z,73.70
2018-09-01T23:47:50.256Z,73.70
2018-09-01T23:50:17.943Z,73.60
2018-09-01T23:52:45.619Z,73.60
2018-09-01T23:55:13.316Z,73.50
2018-09-01T23:57:40.980Z,73.50
